Terminal Aerodrome Forecast
Issued by NWS

Home | Current Version | Previous Version | Text Only | Print | Product List | Glossary On
Versions: 1 2 3 4 5 6 7 8 9 10 11 12 13 14 15 16 17 18 19 20 21
000
FTUS42 KJAX 281700
TAFVQQ
TAF
KVQQ 281720Z 2818/2918 22008KT P6SM SCT020 BKN250
     FM290000 17002KT 5SM BR SCT005
     FM290300 22002KT 1SM BR OVC002
     FM291500 22010KT P6SM VCSH BKN025 OVC050=

USA.gov is the U.S. government's official web portal to all federal, state and local government web resources and services.